Time;durP1;ratioP1;P1;durP2;ratioP2;P2;SDS_P1;SDS_P2;PMS_P1;PMS_P2;Temp;Humidity;BMP_temperature;BMP_pressure;BME280_temperature;BME280_humidity;BME280_pressure;Samples;Min_cycle;Max_cycle;Signal;HPM_P1;HPM_P2
2022/11/13 00:01:30;;;;;;;;;;;;;;;;;;5001344;28;1353;-79
2022/11/13 00:04:15;;;;;;;;;;;;;;;;;;5005457;28;632;-78
2022/11/13 00:07:01;;;;;;;;;;;;;;;;;;5007599;28;778;-77
2022/11/13 00:09:46;;;;;;;;;;;;;;;;;;5008647;28;1349;-77
2022/11/13 00:12:31;;;;;;;;;;;;;;;;;;5004572;28;1991;-78
2022/11/13 00:15:17;;;;;;;;;;;;;;;;;;5012101;28;1506;-77
2022/11/13 00:18:02;;;;;;;;;;;;;;;;;;5009539;28;616;-77
2022/11/13 00:20:48;;;;;;;;;;;;;;;;;;5005209;28;1334;-79
2022/11/13 00:23:35;;;;;;;;;;;;;;;;;;5008872;28;621;-79
2022/11/13 00:26:21;;;;;;;;;;;;;;;;;;5008608;28;560;-79
2022/11/13 00:29:06;;;;;;;;;;;;;;;;;;5011203;28;612;-78
2022/11/13 00:31:51;;;;;;;;;;;;;;;;;;5009426;28;1930;-78
2022/11/13 00:34:36;;;;;;;;;;;;;;;;;;5009596;28;585;-78
2022/11/13 00:37:21;;;;;;;;;;;;;;;;;;4998407;28;624;-78
2022/11/13 00:40:09;;;;;;;;;;;;;;;;;;5000912;28;1424;-79
2022/11/13 00:42:54;;;;;;;;;;;;;;;;;;5008277;28;628;-78
2022/11/13 00:45:39;;;;;;;;;;;;;;;;;;5010966;28;621;-78
2022/11/13 00:48:25;;;;;;;;;;;;;;;;;;5015820;28;692;-80
2022/11/13 00:51:10;;;;;;;;;;;;;;;;;;5041104;28;1412;-79
2022/11/13 00:53:54;;;;;;;;;;;;;;;;;;5039615;28;1975;-80
2022/11/13 00:56:41;;;;;;;;;;;;;;;;;;5008881;28;650;-79
2022/11/13 00:59:26;;;;;;;;;;;;;;;;;;5006613;28;683;-79
2022/11/13 01:02:14;;;;;;;;;;;;;;;;;;5009509;28;624;-79
2022/11/13 01:04:59;;;;;;;;;;;;;;;;;;5008258;28;589;-79
2022/11/13 01:07:44;;;;;;;;;;;;;;;;;;5008200;28;648;-77
2022/11/13 01:10:29;;;;;;;;;;;;;;;;;;5028918;22;2622;-75
2022/11/13 01:13:16;;;;;;;;;;;;;;;;;;4983372;28;1931;-75
2022/11/13 01:16:04;;;;;;;;;;;;;;;;;;5021405;28;684;-74
2022/11/13 01:18:49;;;;;;;;;;;;;;;;;;5091020;28;666;-73
2022/11/13 01:21:34;;;;;;;;;;;;;;;;;;5070396;28;612;-74
2022/11/13 01:24:19;;;;;;;;;;;;;;;;;;5071368;28;605;-74
2022/11/13 01:27:04;;;;;;;;;;;;;;;;;;5071910;28;682;-74
2022/11/13 01:29:50;;;;;;;;;;;;;;;;;;5071599;28;1348;-76
2022/11/13 01:32:35;;;;;;;;;;;;;;;;;;5070674;28;1914;-74
2022/11/13 01:35:19;;;;;;;;;;;;;;;;;;5071648;28;647;-75
2022/11/13 01:38:04;;;;;;;;;;;;;;;;;;5071736;28;652;-74
2022/11/13 01:40:49;;;;;;;;;;;;;;;;;;5071662;28;1434;-74
2022/11/13 01:43:35;;;;;;;;;;;;;;;;;;5074121;28;644;-74
2022/11/13 01:46:31;;;;;;;;;;;;;;;;;;5075134;28;649;-74
2022/11/13 01:49:19;;;;;;;;;;;;;;;;;;5075515;28;1326;-74
2022/11/13 01:52:05;;;;;;;;;;;;;;;;;;5074659;28;1906;-74
2022/11/13 01:54:50;;;;;;;;;;;;;;;;;;5075319;28;637;-75
2022/11/13 01:57:34;;;;;;;;;;;;;;;;;;5074933;28;639;-74
2022/11/13 02:00:19;;;;;;;;;;;;;;;;;;5075325;28;1415;-74
2022/11/13 02:03:06;;;;;;;;;;;;;;;;;;5074627;28;608;-75
2022/11/13 02:05:51;;;;;;;;;;;;;;;;;;5075891;28;753;-74
2022/11/13 02:08:35;;;;;;;;;;;;;;;;;;5080072;28;593;-75
2022/11/13 02:11:20;;;;;;;;;;;;;;;;;;5084378;28;624;-75
2022/11/13 02:14:05;;;;;;;;;;;;;;;;;;5075775;28;1910;-75
2022/11/13 02:16:51;;;;;;;;;;;;;;;;;;5074590;28;637;-74
2022/11/13 02:19:38;;;;;;;;;;;;;;;;;;5074330;28;1313;-75
2022/11/13 02:22:24;;;;;;;;;;;;;;;;;;5073959;28;685;-75
2022/11/13 02:25:11;;;;;;;;;;;;;;;;;;5072183;28;686;-74
2022/11/13 02:27:55;;;;;;;;;;;;;;;;;;5073055;28;617;-74
2022/11/13 02:30:40;;;;;;;;;;;;;;;;;;5070455;28;1285;-75
2022/11/13 02:33:28;;;;;;;;;;;;;;;;;;5069535;28;1903;-75
2022/11/13 02:36:13;;;;;;;;;;;;;;;;;;5071007;28;658;-75
2022/11/13 02:38:58;;;;;;;;;;;;;;;;;;5069031;28;1622;-74
2022/11/13 02:41:44;;;;;;;;;;;;;;;;;;5071086;28;677;-75
2022/11/13 02:44:28;;;;;;;;;;;;;;;;;;5073920;28;689;-75
2022/11/13 02:47:13;;;;;;;;;;;;;;;;;;5069594;28;1776;-75
2022/11/13 02:49:58;;;;;;;;;;;;;;;;;;5061684;28;1308;-73
2022/11/13 02:52:43;;;;;;;;;;;;;;;;;;5072300;28;1969;-74
2022/11/13 02:55:27;;;;;;;;;;;;;;;;;;5072712;28;705;-76
2022/11/13 02:58:13;;;;;;;;;;;;;;;;;;5072204;28;639;-75
2022/11/13 03:00:58;;;;;;;;;;;;;;;;;;5069488;28;1417;-74
2022/11/13 03:03:43;;;;;;;;;;;;;;;;;;5072067;28;1256;-74
2022/11/13 03:06:27;;;;;;;;;;;;;;;;;;5071994;28;599;-74
2022/11/13 03:09:12;;;;;;;;;;;;;;;;;;5070924;28;1392;-76
2022/11/13 03:11:57;;;;;;;;;;;;;;;;;;5073754;28;607;-75
2022/11/13 03:14:43;;;;;;;;;;;;;;;;;;5073796;28;632;-74
2022/11/13 03:17:30;;;;;;;;;;;;;;;;;;5071034;28;651;-74
2022/11/13 03:20:15;;;;;;;;;;;;;;;;;;5072323;28;1665;-75
2022/11/13 03:23:00;;;;;;;;;;;;;;;;;;5072902;28;655;-75
2022/11/13 03:25:45;;;;;;;;;;;;;;;;;;5073719;28;643;-75
2022/11/13 03:28:30;;;;;;;;;;;;;;;;;;5070414;28;659;-74
2022/11/13 03:31:16;;;;;;;;;;;;;;;;;;5070005;28;1477;-76
2022/11/13 03:34:01;;;;;;;;;;;;;;;;;;5069549;28;1969;-75
2022/11/13 03:36:45;;;;;;;;;;;;;;;;;;5069266;28;589;-75
2022/11/13 03:39:30;;;;;;;;;;;;;;;;;;5069419;28;1308;-75
2022/11/13 03:42:15;;;;;;;;;;;;;;;;;;5069107;28;1154;-75
2022/11/13 03:45:00;;;;;;;;;;;;;;;;;;5069915;28;607;-75
2022/11/13 03:47:47;;;;;;;;;;;;;;;;;;5070044;28;650;-75
2022/11/13 03:50:32;;;;;;;;;;;;;;;;;;5070561;28;1330;-74
2022/11/13 03:53:17;;;;;;;;;;;;;;;;;;5071724;28;1902;-75
2022/11/13 03:56:02;;;;;;;;;;;;;;;;;;5072982;28;619;-75
2022/11/13 03:58:47;;;;;;;;;;;;;;;;;;5072600;28;617;-75
2022/11/13 04:01:31;;;;;;;;;;;;;;;;;;5072034;28;724;-73
2022/11/13 04:04:17;;;;;;;;;;;;;;;;;;5072991;28;618;-75
2022/11/13 04:07:02;;;;;;;;;;;;;;;;;;5072136;28;683;-75
2022/11/13 04:09:47;;;;;;;;;;;;;;;;;;5072209;28;1397;-75
2022/11/13 04:12:32;;;;;;;;;;;;;;;;;;5067617;28;1910;-74
2022/11/13 04:15:17;;;;;;;;;;;;;;;;;;5072393;28;691;-75
2022/11/13 04:18:02;;;;;;;;;;;;;;;;;;5072861;28;611;-75
2022/11/13 04:20:48;;;;;;;;;;;;;;;;;;5072698;28;1427;-75
2022/11/13 04:23:33;;;;;;;;;;;;;;;;;;5071711;28;658;-73
2022/11/13 04:26:18;;;;;;;;;;;;;;;;;;5072624;28;697;-74
2022/11/13 04:29:03;;;;;;;;;;;;;;;;;;5072272;28;1415;-75
2022/11/13 04:31:47;;;;;;;;;;;;;;;;;;5071843;28;615;-74
2022/11/13 04:34:32;;;;;;;;;;;;;;;;;;5072130;28;2249;-75
2022/11/13 04:37:18;;;;;;;;;;;;;;;;;;5072071;28;640;-75
2022/11/13 04:40:03;;;;;;;;;;;;;;;;;;5072300;28;1407;-75
2022/11/13 04:42:50;;;;;;;;;;;;;;;;;;5070940;28;1502;-74
2022/11/13 04:45:35;;;;;;;;;;;;;;;;;;5052308;28;1296;-75
2022/11/13 04:48:20;;;;;;;;;;;;;;;;;;5052114;28;638;-76
2022/11/13 04:51:05;;;;;;;;;;;;;;;;;;5052369;28;1464;-75
2022/11/13 04:53:51;;;;;;;;;;;;;;;;;;5051915;28;1973;-75
2022/11/13 04:56:36;;;;;;;;;;;;;;;;;;5052808;28;608;-75
2022/11/13 04:59:20;;;;;;;;;;;;;;;;;;5055549;28;1423;-75
2022/11/13 05:02:05;;;;;;;;;;;;;;;;;;5060269;28;609;-75
2022/11/13 05:04:50;;;;;;;;;;;;;;;;;;5052388;28;629;-75
2022/11/13 05:07:35;;;;;;;;;;;;;;;;;;5049772;28;617;-75
2022/11/13 05:10:21;;;;;;;;;;;;;;;;;;5051494;28;1374;-76
2022/11/13 05:13:06;;;;;;;;;;;;;;;;;;5046755;28;1910;-73
2022/11/13 05:15:50;;;;;;;;;;;;;;;;;;5047562;28;640;-75
2022/11/13 05:18:36;;;;;;;;;;;;;;;;;;5047301;28;649;-75
2022/11/13 05:21:21;;;;;;;;;;;;;;;;;;5046858;28;702;-74
2022/11/13 05:24:06;;;;;;;;;;;;;;;;;;5051606;28;627;-75
2022/11/13 05:26:52;;;;;;;;;;;;;;;;;;5047867;28;612;-76
2022/11/13 05:29:37;;;;;;;;;;;;;;;;;;5050931;28;1308;-75
2022/11/13 05:32:22;;;;;;;;;;;;;;;;;;5052106;28;599;-75
2022/11/13 05:35:07;;;;;;;;;;;;;;;;;;5052183;28;1969;-75
2022/11/13 05:37:52;;;;;;;;;;;;;;;;;;5052589;28;608;-74
2022/11/13 05:40:37;;;;;;;;;;;;;;;;;;5057990;28;1384;-76
2022/11/13 05:43:23;;;;;;;;;;;;;;;;;;5070772;28;628;-74
2022/11/13 05:46:08;;;;;;;;;;;;;;;;;;5071602;28;601;-75
2022/11/13 05:48:54;;;;;;;;;;;;;;;;;;5072548;28;607;-74
2022/11/13 05:51:39;;;;;;;;;;;;;;;;;;5071734;28;723;-75
2022/11/13 05:54:24;;;;;;;;;;;;;;;;;;5071924;28;1906;-74
2022/11/13 05:57:08;;;;;;;;;;;;;;;;;;5072433;28;610;-75
2022/11/13 05:59:55;;;;;;;;;;;;;;;;;;5069709;28;1305;-75
2022/11/13 06:02:39;;;;;;;;;;;;;;;;;;5068813;28;635;-75
2022/11/13 06:05:24;;;;;;;;;;;;;;;;;;5068210;28;643;-75
2022/11/13 06:08:09;;;;;;;;;;;;;;;;;;5072418;28;674;-75
2022/11/13 06:10:57;;;;;;;;;;;;;;;;;;5070418;28;1306;-75
2022/11/13 06:13:43;;;;;;;;;;;;;;;;;;5068987;28;1909;-76
2022/11/13 06:16:29;;;;;;;;;;;;;;;;;;5071723;28;615;-75
2022/11/13 06:19:14;;;;;;;;;;;;;;;;;;5072270;28;1310;-75
2022/11/13 06:21:59;;;;;;;;;;;;;;;;;;5067824;28;604;-75
2022/11/13 06:24:44;;;;;;;;;;;;;;;;;;5071416;28;606;-75
2022/11/13 06:27:29;;;;;;;;;;;;;;;;;;5072196;28;733;-74
2022/11/13 06:30:14;;;;;;;;;;;;;;;;;;5074636;28;1379;-75
2022/11/13 06:33:00;;;;;;;;;;;;;;;;;;5075087;28;639;-75
2022/11/13 06:35:45;;;;;;;;;;;;;;;;;;5075372;28;1502;-75
2022/11/13 06:38:30;;;;;;;;;;;;;;;;;;5075467;28;663;-74
2022/11/13 06:41:16;;;;;;;;;;;;;;;;;;5074950;28;1361;-73
2022/11/13 06:44:00;;;;;;;;;;;;;;;;;;5075410;28;1047;-75
2022/11/13 06:46:45;;;;;;;;;;;;;;;;;;5075569;28;595;-76
2022/11/13 06:49:31;;;;;;;;;;;;;;;;;;5075323;28;1395;-75
2022/11/13 06:52:16;;;;;;;;;;;;;;;;;;5074613;28;596;-75
2022/11/13 06:55:01;;;;;;;;;;;;;;;;;;5075083;28;1967;-75
2022/11/13 06:57:46;;;;;;;;;;;;;;;;;;5075696;28;616;-75
2022/11/13 07:00:30;;;;;;;;;;;;;;;;;;5074889;28;1312;-75
2022/11/13 07:03:16;;;;;;;;;;;;;;;;;;5074555;28;589;-75
2022/11/13 07:06:03;;;;;;;;;;;;;;;;;;5075062;28;685;-74
2022/11/13 07:08:48;;;;;;;;;;;;;;;;;;5075127;28;636;-75
2022/11/13 07:11:33;;;;;;;;;;;;;;;;;;5074321;28;640;-77
2022/11/13 07:14:18;;;;;;;;;;;;;;;;;;5076247;28;1959;-74
2022/11/13 07:17:02;;;;;;;;;;;;;;;;;;5074848;28;659;-75
2022/11/13 07:19:47;;;;;;;;;;;;;;;;;;5074691;28;1390;-75
2022/11/13 07:22:33;;;;;;;;;;;;;;;;;;5073797;28;628;-76
2022/11/13 07:25:18;;;;;;;;;;;;;;;;;;5074969;28;675;-77
2022/11/13 07:28:03;;;;;;;;;;;;;;;;;;5074762;28;644;-75
2022/11/13 07:30:48;;;;;;;;;;;;;;;;;;5074767;28;1312;-74
2022/11/13 07:33:32;;;;;;;;;;;;;;;;;;5073887;28;1905;-75
2022/11/13 07:36:17;;;;;;;;;;;;;;;;;;5074523;28;658;-75
2022/11/13 07:39:03;;;;;;;;;;;;;;;;;;5074647;28;1379;-75
2022/11/13 07:41:48;;;;;;;;;;;;;;;;;;5073706;28;1257;-75
2022/11/13 07:44:33;;;;;;;;;;;;;;;;;;5074306;28;658;-76
2022/11/13 07:47:17;;;;;;;;;;;;;;;;;;5074219;28;633;-75
2022/11/13 07:50:02;;;;;;;;;;;;;;;;;;5074784;28;1403;-76
2022/11/13 07:52:47;;;;;;;;;;;;;;;;;;5074739;28;662;-75
2022/11/13 07:55:34;;;;;;;;;;;;;;;;;;5079834;28;1910;-74
2022/11/13 07:58:18;;;;;;;;;;;;;;;;;;5074457;28;621;-75
2022/11/13 08:01:03;;;;;;;;;;;;;;;;;;5074345;28;1303;-76
2022/11/13 08:03:48;;;;;;;;;;;;;;;;;;5074088;28;624;-75
2022/11/13 08:06:35;;;;;;;;;;;;;;;;;;5074176;28;585;-74
2022/11/13 08:09:20;;;;;;;;;;;;;;;;;;5073639;28;1339;-75
2022/11/13 08:12:07;;;;;;;;;;;;;;;;;;5073325;28;725;-75
2022/11/13 08:14:52;;;;;;;;;;;;;;;;;;5073646;28;1972;-75
2022/11/13 08:17:36;;;;;;;;;;;;;;;;;;5073834;28;619;-75
2022/11/13 08:20:21;;;;;;;;;;;;;;;;;;5073692;28;1350;-75
2022/11/13 08:23:06;;;;;;;;;;;;;;;;;;5072935;28;609;-75
2022/11/13 08:25:51;;;;;;;;;;;;;;;;;;5073756;28;581;-75
2022/11/13 08:28:37;;;;;;;;;;;;;;;;;;5073684;28;608;-75
2022/11/13 08:31:21;;;;;;;;;;;;;;;;;;5071245;28;1517;-76
2022/11/13 08:34:06;;;;;;;;;;;;;;;;;;5053201;28;1973;-75
2022/11/13 08:36:51;;;;;;;;;;;;;;;;;;5053568;28;616;-75
2022/11/13 08:39:36;;;;;;;;;;;;;;;;;;5053340;28;1282;-77
2022/11/13 08:42:21;;;;;;;;;;;;;;;;;;5052593;28;1212;-75
2022/11/13 08:45:08;;;;;;;;;;;;;;;;;;5053259;28;587;-75
2022/11/13 08:47:53;;;;;;;;;;;;;;;;;;5053310;28;621;-76
2022/11/13 08:50:38;;;;;;;;;;;;;;;;;;5053176;28;1325;-75
2022/11/13 08:53:23;;;;;;;;;;;;;;;;;;5051778;28;732;-75
2022/11/13 08:56:08;;;;;;;;;;;;;;;;;;5052839;28;1961;-74
2022/11/13 08:58:53;;;;;;;;;;;;;;;;;;5052969;28;657;-75
2022/11/13 09:01:39;;;;;;;;;;;;;;;;;;5052201;28;671;-77
2022/11/13 09:04:23;;;;;;;;;;;;;;;;;;5052853;28;589;-77
2022/11/13 09:07:08;;;;;;;;;;;;;;;;;;5053035;28;678;-76
2022/11/13 09:09:53;;;;;;;;;;;;;;;;;;5052943;28;1404;-75
2022/11/13 09:12:38;;;;;;;;;;;;;;;;;;5052122;28;612;-75
2022/11/13 09:15:23;;;;;;;;;;;;;;;;;;5052533;28;1910;-76
2022/11/13 09:18:09;;;;;;;;;;;;;;;;;;5052539;28;759;-74
2022/11/13 09:20:54;;;;;;;;;;;;;;;;;;5053082;28;1396;-75
2022/11/13 09:23:38;;;;;;;;;;;;;;;;;;5051997;28;696;-75
2022/11/13 09:26:23;;;;;;;;;;;;;;;;;;5052770;28;677;-76
2022/11/13 09:29:09;;;;;;;;;;;;;;;;;;5052606;28;1279;-75
2022/11/13 09:31:53;;;;;;;;;;;;;;;;;;5052017;28;613;-75
2022/11/13 09:34:39;;;;;;;;;;;;;;;;;;5052435;28;1975;-76
2022/11/13 09:37:24;;;;;;;;;;;;;;;;;;5055623;28;2268;-76
2022/11/13 09:40:11;;;;;;;;;;;;;;;;;;5071168;28;1469;-75
2022/11/13 09:42:56;;;;;;;;;;;;;;;;;;5066835;28;662;-75
2022/11/13 09:45:40;;;;;;;;;;;;;;;;;;5071991;28;702;-74
2022/11/13 09:48:27;;;;;;;;;;;;;;;;;;5072083;28;636;-75
2022/11/13 09:51:14;;;;;;;;;;;;;;;;;;5071861;28;1356;-73
2022/11/13 09:53:59;;;;;;;;;;;;;;;;;;5072283;28;632;-75
2022/11/13 09:56:45;;;;;;;;;;;;;;;;;;5070501;28;636;-76
2022/11/13 09:59:31;;;;;;;;;;;;;;;;;;5072132;28;1368;-75
2022/11/13 10:02:17;;;;;;;;;;;;;;;;;;5071720;28;678;-76
2022/11/13 10:05:03;;;;;;;;;;;;;;;;;;5074905;28;625;-76
2022/11/13 10:07:51;;;;;;;;;;;;;;;;;;5070731;28;592;-75
2022/11/13 10:10:50;;;;;;;;;;;;;;;;;;5070752;28;1411;-75
2022/11/13 10:13:37;;;;;;;;;;;;;;;;;;5075180;28;613;-75
2022/11/13 10:16:26;;;;;;;;;;;;;;;;;;5074726;28;1906;-75
2022/11/13 10:19:14;;;;;;;;;;;;;;;;;;5075825;28;1349;-75
2022/11/13 10:22:00;;;;;;;;;;;;;;;;;;5074088;28;605;-75
2022/11/13 10:24:46;;;;;;;;;;;;;;;;;;5071792;28;1466;-75
2022/11/13 10:27:31;;;;;;;;;;;;;;;;;;5072127;28;625;-75
2022/11/13 10:30:16;;;;;;;;;;;;;;;;;;5075356;28;1300;-76
2022/11/13 10:33:02;;;;;;;;;;;;;;;;;;5074706;28;682;-75
2022/11/13 10:35:49;;;;;;;;;;;;;;;;;;5075454;28;1910;-76
2022/11/13 10:38:35;;;;;;;;;;;;;;;;;;5075378;28;613;-75
2022/11/13 10:41:21;;;;;;;;;;;;;;;;;;5073654;28;1426;-75
2022/11/13 10:44:08;;;;;;;;;;;;;;;;;;5076427;28;656;-75
2022/11/13 10:47:03;;;;;;;;;;;;;;;;;;5075589;28;628;-74
2022/11/13 10:49:48;;;;;;;;;;;;;;;;;;5076809;28;1296;-75
2022/11/13 10:52:33;;;;;;;;;;;;;;;;;;5074485;28;607;-76
2022/11/13 10:55:21;;;;;;;;;;;;;;;;;;5074967;28;1899;-75
2022/11/13 10:58:13;;;;;;;;;;;;;;;;;;5074780;28;643;-74
2022/11/13 11:00:58;;;;;;;;;;;;;;;;;;5075046;28;1403;-77
2022/11/13 11:03:48;;;;;;;;;;;;;;;;;;5074930;28;612;-77
2022/11/13 11:06:34;;;;;;;;;;;;;;;;;;5075064;28;598;-74
2022/11/13 11:09:20;;;;;;;;;;;;;;;;;;5074715;28;1433;-76
2022/11/13 11:12:22;;;;;;;;;;;;;;;;;;5074011;28;696;-76
2022/11/13 11:15:15;;;;;;;;;;;;;;;;;;5070559;28;1909;-75
2022/11/13 11:18:00;;;;;;;;;;;;;;;;;;5067719;28;1451;-75
2022/11/13 11:20:47;;;;;;;;;;;;;;;;;;5073891;28;1387;-74
2022/11/13 11:23:35;;;;;;;;;;;;;;;;;;5073319;28;683;-75
2022/11/13 11:26:21;;;;;;;;;;;;;;;;;;5074986;28;917;-75
2022/11/13 11:29:08;;;;;;;;;;;;;;;;;;5074679;28;1309;-75
2022/11/13 11:31:54;;;;;;;;;;;;;;;;;;5066129;28;1389;-75
2022/11/13 11:34:40;;;;;;;;;;;;;;;;;;5074415;28;1169;-75
2022/11/13 11:37:27;;;;;;;;;;;;;;;;;;5074467;28;659;-75
2022/11/13 11:40:13;;;;;;;;;;;;;;;;;;5070830;28;1565;-75
2022/11/13 11:43:01;;;;;;;;;;;;;;;;;;5063144;28;1363;-74
2022/11/13 11:45:46;;;;;;;;;;;;;;;;;;5071562;28;1392;-75
2022/11/13 11:48:32;;;;;;;;;;;;;;;;;;5065227;28;974;-75
2022/11/13 11:51:18;;;;;;;;;;;;;;;;;;5068338;28;1367;-74
2022/11/13 11:54:07;;;;;;;;;;;;;;;;;;5072975;28;655;-76
2022/11/13 11:56:53;;;;;;;;;;;;;;;;;;5060779;28;1906;-75
2022/11/13 11:59:43;;;;;;;;;;;;;;;;;;5069301;28;1373;-75
2022/11/13 12:02:47;;;;;;;;;;;;;;;;;;5071723;28;719;-75
2022/11/13 12:05:37;;;;;;;;;;;;;;;;;;5066284;28;1396;-76
2022/11/13 12:08:24;;;;;;;;;;;;;;;;;;5062300;28;983;-75
2022/11/13 12:11:12;;;;;;;;;;;;;;;;;;5071412;28;1284;-75
2022/11/13 12:13:58;;;;;;;;;;;;;;;;;;5072620;28;1425;-75
2022/11/13 12:16:44;;;;;;;;;;;;;;;;;;5068124;28;1971;-73
2022/11/13 12:19:31;;;;;;;;;;;;;;;;;;5072338;28;1509;-75
2022/11/13 12:22:19;;;;;;;;;;;;;;;;;;5064501;28;1152;-75
2022/11/13 12:25:10;;;;;;;;;;;;;;;;;;5064255;28;1457;-75
2022/11/13 12:27:57;;;;;;;;;;;;;;;;;;5068434;28;999;-75
2022/11/13 12:30:43;;;;;;;;;;;;;;;;;;5072984;28;1398;-75
2022/11/13 12:33:31;;;;;;;;;;;;;;;;;;5071264;28;1457;-76
2022/11/13 12:36:16;;;;;;;;;;;;;;;;;;5067364;28;1902;-76
2022/11/13 12:39:02;;;;;;;;;;;;;;;;;;5067201;28;1355;-75
2022/11/13 12:41:49;;;;;;;;;;;;;;;;;;5065215;28;1420;-74
2022/11/13 12:44:36;;;;;;;;;;;;;;;;;;5053743;28;1094;-75
2022/11/13 12:47:20;;;;;;;;;;;;;;;;;;5067246;28;1265;-75
2022/11/13 12:50:06;;;;;;;;;;;;;;;;;;5056190;28;1383;-76
2022/11/13 12:52:58;;;;;;;;;;;;;;;;;;5063589;28;1197;-75
2022/11/13 12:55:55;;;;;;;;;;;;;;;;;;5070269;28;1965;-75
2022/11/13 12:58:40;;;;;;;;;;;;;;;;;;5057258;28;1416;-77
2022/11/13 13:01:24;;;;;;;;;;;;;;;;;;5064222;28;1416;-75
2022/11/13 13:04:18;;;;;;;;;;;;;;;;;;5002200;28;1665;-75
2022/11/13 13:07:21;;;;;;;;;;;;;;;;;;4985073;28;1926;-75
2022/11/13 13:10:10;;;;;;;;;;;;;;;;;;5014701;28;1305;-75
2022/11/13 13:12:59;;;;;;;;;;;;;;;;;;4996220;28;1081;-75
2022/11/13 13:15:46;;;;;;;;;;;;;;;;;;5000138;28;1954;-75
2022/11/13 13:18:32;;;;;;;;;;;;;;;;;;5008931;28;604;-75
2022/11/13 13:21:18;;;;;;;;;;;;;;;;;;5005606;28;1436;-76
2022/11/13 13:24:07;;;;;;;;;;;;;;;;;;5006642;28;620;-75
2022/11/13 13:26:52;;;;;;;;;;;;;;;;;;5005520;28;600;-76
2022/11/13 13:29:39;;;;;;;;;;;;;;;;;;4998944;28;1413;-76
2022/11/13 13:32:26;;;;;;;;;;;;;;;;;;4978051;28;756;-75
2022/11/13 13:35:13;;;;;;;;;;;;;;;;;;4983284;28;651;-75
2022/11/13 13:38:03;;;;;;;;;;;;;;;;;;4985355;28;652;-76
2022/11/13 13:40:53;;;;;;;;;;;;;;;;;;4996133;28;1474;-75
2022/11/13 13:43:41;;;;;;;;;;;;;;;;;;5010061;28;589;-75
2022/11/13 13:46:29;;;;;;;;;;;;;;;;;;5007173;28;585;-75
2022/11/13 13:49:15;;;;;;;;;;;;;;;;;;4999825;28;1400;-74
2022/11/13 13:52:00;;;;;;;;;;;;;;;;;;4994454;28;1568;-75
2022/11/13 13:54:45;;;;;;;;;;;;;;;;;;5007832;28;699;-75
2022/11/13 13:57:30;;;;;;;;;;;;;;;;;;5008979;28;1930;-75
2022/11/13 14:00:16;;;;;;;;;;;;;;;;;;5007637;28;1326;-73
2022/11/13 14:03:03;;;;;;;;;;;;;;;;;;5003621;28;644;-73
2022/11/13 14:05:48;;;;;;;;;;;;;;;;;;5002225;28;687;-74
2022/11/13 14:08:33;;;;;;;;;;;;;;;;;;5002468;28;1404;-74
2022/11/13 14:11:20;;;;;;;;;;;;;;;;;;5004473;28;1313;-76
2022/11/13 14:14:09;;;;;;;;;;;;;;;;;;5008211;28;576;-73
2022/11/13 14:16:54;;;;;;;;;;;;;;;;;;5004081;28;1930;-73
2022/11/13 14:19:41;;;;;;;;;;;;;;;;;;5002824;28;1458;-73
2022/11/13 14:22:25;;;;;;;;;;;;;;;;;;5058753;28;971;-73
2022/11/13 14:25:15;;;;;;;;;;;;;;;;;;5067186;28;1384;-74
2022/11/13 14:28:00;;;;;;;;;;;;;;;;;;5058879;28;936;-74
2022/11/13 14:30:45;;;;;;;;;;;;;;;;;;5050441;28;1431;-74
2022/11/13 14:33:30;;;;;;;;;;;;;;;;;;5060652;28;1223;-75
2022/11/13 14:36:16;;;;;;;;;;;;;;;;;;5069322;28;1973;-75
2022/11/13 14:39:01;;;;;;;;;;;;;;;;;;5068704;28;1389;-74
2022/11/13 14:41:48;;;;;;;;;;;;;;;;;;4991996;28;894;-74
2022/11/13 14:44:33;;;;;;;;;;;;;;;;;;5003189;28;562;-74
2022/11/13 14:47:22;;;;;;;;;;;;;;;;;;5000625;28;609;-73
2022/11/13 14:50:09;;;;;;;;;;;;;;;;;;5002562;28;1392;-73
2022/11/13 14:53:00;;;;;;;;;;;;;;;;;;4998785;28;1736;-75
2022/11/13 14:55:51;;;;;;;;;;;;;;;;;;4998686;28;1933;-75
2022/11/13 14:58:37;;;;;;;;;;;;;;;;;;5001058;28;1006;-75
2022/11/13 15:01:23;;;;;;;;;;;;;;;;;;5003153;28;1468;-74
2022/11/13 15:04:08;;;;;;;;;;;;;;;;;;5002303;28;632;-75
2022/11/13 15:06:54;;;;;;;;;;;;;;;;;;5004188;28;670;-74
2022/11/13 15:09:41;;;;;;;;;;;;;;;;;;5001767;28;1277;-74
2022/11/13 15:12:26;;;;;;;;;;;;;;;;;;5003624;28;1170;-75
2022/11/13 15:15:14;;;;;;;;;;;;;;;;;;5000347;28;1099;-74
2022/11/13 15:17:59;;;;;;;;;;;;;;;;;;4993724;28;1934;-75
2022/11/13 15:20:44;;;;;;;;;;;;;;;;;;5003665;28;1325;-74
2022/11/13 15:23:29;;;;;;;;;;;;;;;;;;5003689;28;1574;-73
2022/11/13 15:26:16;;;;;;;;;;;;;;;;;;5005961;28;691;-74
2022/11/13 15:29:01;;;;;;;;;;;;;;;;;;4999588;28;1463;-75
2022/11/13 15:31:47;;;;;;;;;;;;;;;;;;4996978;28;660;-75
2022/11/13 15:34:32;;;;;;;;;;;;;;;;;;4995694;28;616;-74
2022/11/13 15:37:17;;;;;;;;;;;;;;;;;;5000814;28;1930;-73
2022/11/13 15:40:03;;;;;;;;;;;;;;;;;;5000318;28;1583;-75
2022/11/13 15:42:50;;;;;;;;;;;;;;;;;;5001892;28;1469;-74
2022/11/13 15:45:36;;;;;;;;;;;;;;;;;;5003680;28;1345;-76
2022/11/13 15:48:21;;;;;;;;;;;;;;;;;;5010945;28;1395;-76
2022/11/13 15:51:08;;;;;;;;;;;;;;;;;;5000450;28;1436;-75
2022/11/13 15:53:54;;;;;;;;;;;;;;;;;;5001465;28;1232;-74
2022/11/13 15:56:39;;;;;;;;;;;;;;;;;;5022075;28;1987;-73
2022/11/13 15:59:25;;;;;;;;;;;;;;;;;;5004421;28;1359;-74
2022/11/13 16:02:10;;;;;;;;;;;;;;;;;;5006493;28;695;-74
2022/11/13 16:04:55;;;;;;;;;;;;;;;;;;5004701;28;1398;-73
2022/11/13 16:07:41;;;;;;;;;;;;;;;;;;5002722;28;600;-75
2022/11/13 16:10:26;;;;;;;;;;;;;;;;;;4995207;28;1258;-73
2022/11/13 16:13:12;;;;;;;;;;;;;;;;;;4986453;28;1433;-74
2022/11/13 16:15:58;;;;;;;;;;;;;;;;;;5001522;28;1107;-75
2022/11/13 16:18:43;;;;;;;;;;;;;;;;;;5003034;28;1537;-73
2022/11/13 16:21:29;;;;;;;;;;;;;;;;;;5016043;28;848;-76
2022/11/13 16:24:14;;;;;;;;;;;;;;;;;;5055708;28;1156;-76
2022/11/13 16:26:59;;;;;;;;;;;;;;;;;;5057475;28;1434;-74
2022/11/13 16:29:44;;;;;;;;;;;;;;;;;;5066307;28;1393;-74
2022/11/13 16:32:30;;;;;;;;;;;;;;;;;;5065587;28;1394;-76
2022/11/13 16:35:15;;;;;;;;;;;;;;;;;;5071584;28;1212;-74
2022/11/13 16:38:00;;;;;;;;;;;;;;;;;;5067772;28;1906;-75
2022/11/13 16:40:45;;;;;;;;;;;;;;;;;;5061259;28;1635;-75
2022/11/13 16:43:30;;;;;;;;;;;;;;;;;;5069236;28;998;-74
2022/11/13 16:46:17;;;;;;;;;;;;;;;;;;5071621;28;1632;-74
2022/11/13 16:49:03;;;;;;;;;;;;;;;;;;5064046;28;1391;-74
2022/11/13 16:51:49;;;;;;;;;;;;;;;;;;5071976;28;640;-74
2022/11/13 16:54:35;;;;;;;;;;;;;;;;;;5072550;28;693;-74
2022/11/13 16:57:19;;;;;;;;;;;;;;;;;;5052509;28;1914;-75
2022/11/13 17:00:05;;;;;;;;;;;;;;;;;;4980954;28;1341;-75
2022/11/13 17:02:51;;;;;;;;;;;;;;;;;;4971014;28;1502;-73
2022/11/13 17:05:38;;;;;;;;;;;;;;;;;;5001968;28;1431;-75
2022/11/13 17:08:23;;;;;;;;;;;;;;;;;;4988091;28;1033;-75
2022/11/13 17:11:08;;;;;;;;;;;;;;;;;;4980656;28;1427;-74
2022/11/13 17:13:54;;;;;;;;;;;;;;;;;;5004447;28;1066;-74
2022/11/13 17:16:39;;;;;;;;;;;;;;;;;;4998315;28;1983;-73
2022/11/13 17:19:24;;;;;;;;;;;;;;;;;;4999794;28;1380;-74
2022/11/13 17:22:11;;;;;;;;;;;;;;;;;;4997223;28;585;-75
2022/11/13 17:24:56;;;;;;;;;;;;;;;;;;4987450;28;1088;-73
2022/11/13 17:27:41;;;;;;;;;;;;;;;;;;5003143;28;1404;-74
2022/11/13 17:30:25;;;;;;;;;;;;;;;;;;5001310;28;1455;-73
2022/11/13 17:33:11;;;;;;;;;;;;;;;;;;4993210;28;1338;-75
2022/11/13 17:35:56;;;;;;;;;;;;;;;;;;4992350;28;664;-73
2022/11/13 17:38:43;;;;;;;;;;;;;;;;;;4988807;28;1930;-75
2022/11/13 17:41:28;;;;;;;;;;;;;;;;;;4982800;28;660;-73
2022/11/13 17:44:13;;;;;;;;;;;;;;;;;;4982842;28;625;-74
2022/11/13 17:46:59;;;;;;;;;;;;;;;;;;4983309;28;645;-74
2022/11/13 17:49:43;;;;;;;;;;;;;;;;;;4999815;28;1397;-74
2022/11/13 17:52:28;;;;;;;;;;;;;;;;;;4998165;28;679;-75
2022/11/13 17:55:16;;;;;;;;;;;;;;;;;;4999428;28;623;-73
2022/11/13 17:58:01;;;;;;;;;;;;;;;;;;4997252;28;1949;-73
2022/11/13 18:00:47;;;;;;;;;;;;;;;;;;5003298;28;1424;-76
2022/11/13 18:03:34;;;;;;;;;;;;;;;;;;5001440;28;640;-73
2022/11/13 18:06:19;;;;;;;;;;;;;;;;;;5004678;28;1602;-75
2022/11/13 18:09:05;;;;;;;;;;;;;;;;;;5000993;28;1393;-75
2022/11/13 18:11:51;;;;;;;;;;;;;;;;;;4998859;28;690;-74
2022/11/13 18:14:37;;;;;;;;;;;;;;;;;;5002019;28;897;-74
2022/11/13 18:17:22;;;;;;;;;;;;;;;;;;5007419;28;1997;-74
2022/11/13 18:20:07;;;;;;;;;;;;;;;;;;5004131;28;1431;-76
2022/11/13 18:22:53;;;;;;;;;;;;;;;;;;5004641;28;1674;-75
2022/11/13 18:25:38;;;;;;;;;;;;;;;;;;5008439;28;1329;-76
2022/11/13 18:28:24;;;;;;;;;;;;;;;;;;5043946;28;971;-76
2022/11/13 18:31:11;;;;;;;;;;;;;;;;;;5067457;28;1478;-75
2022/11/13 18:33:59;;;;;;;;;;;;;;;;;;5070087;28;1031;-75
2022/11/13 18:36:44;;;;;;;;;;;;;;;;;;5070014;28;713;-75
2022/11/13 18:39:28;;;;;;;;;;;;;;;;;;5067471;28;1490;-75
2022/11/13 18:42:16;;;;;;;;;;;;;;;;;;5065807;28;1677;-75
2022/11/13 18:45:03;;;;;;;;;;;;;;;;;;5055812;28;1371;-75
2022/11/13 18:47:47;;;;;;;;;;;;;;;;;;5066762;28;1156;-76
2022/11/13 18:50:32;;;;;;;;;;;;;;;;;;5068780;28;1399;-76
2022/11/13 18:53:17;;;;;;;;;;;;;;;;;;5066130;28;1417;-75
2022/11/13 18:56:02;;;;;;;;;;;;;;;;;;5063604;28;1456;-76
2022/11/13 18:58:47;;;;;;;;;;;;;;;;;;5065190;28;1971;-75
2022/11/13 19:01:35;;;;;;;;;;;;;;;;;;5061505;28;1031;-75
2022/11/13 19:04:21;;;;;;;;;;;;;;;;;;5069673;28;1420;-75
2022/11/13 19:07:10;;;;;;;;;;;;;;;;;;5061343;28;1424;-75
2022/11/13 19:09:55;;;;;;;;;;;;;;;;;;5069189;28;1406;-76
2022/11/13 19:12:41;;;;;;;;;;;;;;;;;;5068802;28;1182;-76
2022/11/13 19:15:26;;;;;;;;;;;;;;;;;;5068675;28;1088;-75
2022/11/13 19:18:12;;;;;;;;;;;;;;;;;;5067465;28;1973;-75
2022/11/13 19:21:00;;;;;;;;;;;;;;;;;;5051316;28;1409;-76